createdAt,value
2018-05-12T00:02:16.836Z,12.10
2018-05-12T00:05:31.526Z,15.03
2018-05-12T00:08:41.741Z,11.63
2018-05-12T00:11:51.820Z,12.40
2018-05-12T00:15:03.008Z,14.83
2018-05-12T00:18:13.840Z,12.37
2018-05-12T00:21:23.137Z,12.57
2018-05-12T00:24:32.681Z,10.77
2018-05-12T00:27:42.657Z,12.40
2018-05-12T00:30:52.012Z,11.40
2018-05-12T00:34:02.383Z,13.67
2018-05-12T00:37:14.545Z,12.70
2018-05-12T00:40:24.855Z,12.80
2018-05-12T00:43:34.428Z,15.03
2018-05-12T00:46:44.043Z,14.40
2018-05-12T00:49:53.600Z,13.27
2018-05-12T00:53:03.941Z,14.77
2018-05-12T00:56:15.500Z,13.47
2018-05-12T00:59:25.644Z,14.70
2018-05-12T01:02:36.743Z,14.83
2018-05-12T01:05:46.148Z,20.57
2018-05-12T01:08:55.688Z,17.80
2018-05-12T01:12:05.255Z,13.40
2018-05-12T01:15:16.636Z,12.60
2018-05-12T01:18:26.061Z,15.83
2018-05-12T01:21:35.612Z,12.30
2018-05-12T01:24:45.552Z,20.57
2018-05-12T01:27:55.796Z,13.43
2018-05-12T01:31:05.832Z,13.17
2018-05-12T01:34:17.794Z,13.40
2018-05-12T01:37:28.213Z,14.30
2018-05-12T01:40:37.790Z,12.90
2018-05-12T01:43:47.244Z,11.97
2018-05-12T01:46:57.499Z,11.33
2018-05-12T01:50:07.816Z,15.27
2018-05-12T01:53:18.609Z,13.03
2018-05-12T01:56:28.842Z,13.53
2018-05-12T01:59:38.156Z,17.60
2018-05-12T02:02:47.671Z,13.93
2018-05-12T02:05:58.180Z,11.87
2018-05-12T02:09:08.552Z,16.00
2018-05-12T02:12:19.787Z,16.10
2018-05-12T02:15:29.268Z,12.10
2018-05-12T02:18:38.859Z,14.40
2018-05-12T02:21:52.773Z,13.87
2018-05-12T02:25:02.173Z,14.67
2018-05-12T02:28:11.893Z,15.97
2018-05-12T02:31:22.249Z,12.17
2018-05-12T02:34:31.808Z,17.53
2018-05-12T02:37:41.312Z,13.30
2018-05-12T02:40:51.254Z,10.40
2018-05-12T02:44:00.738Z,16.50
2018-05-12T02:47:14.908Z,13.93
2018-05-12T02:50:24.284Z,19.47
2018-05-12T02:53:34.085Z,16.77
2018-05-12T02:56:43.508Z,18.95
2018-05-12T02:59:52.863Z,16.10
2018-05-12T03:03:02.219Z,15.73
2018-05-12T03:06:11.738Z,17.33
2018-05-12T03:09:22.752Z,15.30
2018-05-12T03:12:32.960Z,20.50
2018-05-12T03:15:42.525Z,18.83
2018-05-12T03:18:52.990Z,17.00
2018-05-12T03:22:03.122Z,19.27
2018-05-12T03:25:12.732Z,23.80
2018-05-12T03:28:24.159Z,19.33
2018-05-12T03:31:34.084Z,21.80
2018-05-12T03:34:44.806Z,18.47
2018-05-12T03:37:54.211Z,23.90
2018-05-12T03:41:04.108Z,24.40
2018-05-12T03:44:13.584Z,22.57
2018-05-12T03:47:24.484Z,22.23
2018-05-12T03:50:34.354Z,21.40
2018-05-12T03:53:43.748Z,26.63
2018-05-12T03:56:53.144Z,28.83
2018-05-12T04:00:07.352Z,28.63
2018-05-12T04:03:16.741Z,26.37
2018-05-12T04:06:44.432Z,18.13
2018-05-12T04:10:08.613Z,27.57
2018-05-12T04:13:18.932Z,24.47
2018-05-12T04:16:29.319Z,18.57
2018-05-12T04:19:38.737Z,19.93
2018-05-12T04:22:48.351Z,21.50
2018-05-12T04:25:57.864Z,32.53
2018-05-12T04:29:07.314Z,32.40
2018-05-12T04:32:17.190Z,30.70
2018-05-12T04:35:27.723Z,26.90
2018-05-12T04:38:37.424Z,25.37
2018-05-12T04:41:47.215Z,26.97
2018-05-12T04:44:57.051Z,28.10
2018-05-12T04:48:06.589Z,26.90
2018-05-12T04:51:16.518Z,24.17
2018-05-12T04:54:27.196Z,29.23
2018-05-12T04:57:37.236Z,23.93
2018-05-12T05:00:47.117Z,23.33
2018-05-12T05:03:57.131Z,26.10
2018-05-12T05:07:07.540Z,27.73
2018-05-12T05:10:17.800Z,27.83
2018-05-12T05:13:28.137Z,23.27
2018-05-12T05:16:39.016Z,25.30
2018-05-12T05:19:48.451Z,25.90
2018-05-12T05:22:58.590Z,27.37
2018-05-12T05:26:08.604Z,22.07
2018-05-12T05:29:18.205Z,23.37
2018-05-12T05:32:29.565Z,24.10
2018-05-12T05:35:39.162Z,27.37
2018-05-12T05:38:49.372Z,22.47
2018-05-12T05:41:59.300Z,25.43
2018-05-12T05:45:08.895Z,22.03
2018-05-12T05:48:18.684Z,25.17
2018-05-12T05:51:29.564Z,20.07
2018-05-12T05:54:39.025Z,21.47
2018-05-12T05:57:48.468Z,21.57
2018-05-12T06:00:57.832Z,20.90
2018-05-12T06:04:07.249Z,19.87
2018-05-12T06:07:16.810Z,23.07
2018-05-12T06:10:26.273Z,22.50
2018-05-12T06:13:35.685Z,27.13
2018-05-12T06:16:45.019Z,19.47
2018-05-12T06:19:54.629Z,18.60
2018-05-12T06:23:05.270Z,19.53
2018-05-12T06:26:14.751Z,20.63
2018-05-12T06:29:24.749Z,25.37
2018-05-12T06:32:34.681Z,19.77
2018-05-12T06:35:44.572Z,20.13
2018-05-12T06:38:54.937Z,20.10
2018-05-12T06:42:04.464Z,20.40
2018-05-12T06:45:14.073Z,21.37
2018-05-12T06:48:23.779Z,17.23
2018-05-12T06:51:34.035Z,20.47
2018-05-12T06:54:48.668Z,19.50
2018-05-12T06:57:58.100Z,15.05
2018-05-12T07:01:07.446Z,19.53
2018-05-12T07:04:16.979Z,20.33
2018-05-12T07:07:27.264Z,19.83
2018-05-12T07:10:36.680Z,16.02
2018-05-12T07:13:47.083Z,15.25
2018-05-12T07:16:56.593Z,14.45
2018-05-12T07:20:06.080Z,17.27
2018-05-12T07:23:15.976Z,15.93
2018-05-12T07:26:25.859Z,16.35
2018-05-12T07:29:36.117Z,15.63
2018-05-12T07:32:45.751Z,12.63
2018-05-12T07:35:55.691Z,13.40
2018-05-12T07:39:06.071Z,13.40
2018-05-12T07:42:15.619Z,16.87
2018-05-12T07:45:25.271Z,13.68
2018-05-12T07:48:36.263Z,13.98
2018-05-12T07:51:46.176Z,13.32
2018-05-12T07:54:55.669Z,13.45
2018-05-12T07:58:05.162Z,16.42
2018-05-12T08:01:14.608Z,18.13
2018-05-12T08:04:24.471Z,17.58
2018-05-12T08:07:34.172Z,16.95
2018-05-12T08:10:43.604Z,14.20
2018-05-12T08:13:53.541Z,13.80
2018-05-12T08:17:04.006Z,16.27
2018-05-12T08:20:13.532Z,14.40
2018-05-12T08:23:23.800Z,13.57
2018-05-12T08:26:34.218Z,11.50
2018-05-12T08:29:44.017Z,14.95
2018-05-12T08:32:54.229Z,13.70
2018-05-12T08:36:03.564Z,15.90
2018-05-12T08:39:13.074Z,13.00
2018-05-12T08:42:23.356Z,14.05
2018-05-12T08:45:34.468Z,11.60
2018-05-12T08:48:43.840Z,13.52
2018-05-12T08:51:54.092Z,12.27
2018-05-12T08:55:03.545Z,11.32
2018-05-12T08:58:13.147Z,10.50
2018-05-12T09:01:22.690Z,10.90
2018-05-12T09:04:32.272Z,10.90
2018-05-12T09:07:42.089Z,10.85
2018-05-12T09:10:51.499Z,9.05
2018-05-12T09:14:01.799Z,11.35
2018-05-12T09:17:11.967Z,10.02
2018-05-12T09:20:21.669Z,6.68
2018-05-12T09:23:31.115Z,7.60
2018-05-12T09:26:41.731Z,10.98
2018-05-12T09:29:51.961Z,7.65
2018-05-12T09:33:01.568Z,6.82
2018-05-12T09:36:11.133Z,8.10
2018-05-12T09:39:20.933Z,7.80
2018-05-12T09:42:30.273Z,7.07
2018-05-12T09:45:42.391Z,7.22
2018-05-12T09:48:52.225Z,8.93
2018-05-12T09:52:02.435Z,8.45
2018-05-12T09:55:11.901Z,8.48
2018-05-12T09:58:21.387Z,9.95
2018-05-12T10:01:31.380Z,9.27
2018-05-12T10:04:42.970Z,6.40
2018-05-12T10:07:52.366Z,9.02
2018-05-12T10:11:01.741Z,6.97
2018-05-12T10:14:11.266Z,7.10
2018-05-12T10:17:20.809Z,5.87
2018-05-12T10:20:31.013Z,5.30
2018-05-12T10:23:40.453Z,6.07
2018-05-12T10:26:49.909Z,5.10
2018-05-12T10:29:59.395Z,8.65
2018-05-12T10:33:09.900Z,5.25
2018-05-12T10:36:19.364Z,5.78
2018-05-12T10:39:29.664Z,6.40
2018-05-12T10:42:39.123Z,5.82
2018-05-12T10:45:48.603Z,6.85
2018-05-12T10:48:58.529Z,5.53
2018-05-12T10:52:07.956Z,7.45
2018-05-12T10:55:17.539Z,6.65
2018-05-12T10:58:27.041Z,7.53
2018-05-12T11:01:37.322Z,8.00
2018-05-12T11:04:47.036Z,8.15
2018-05-12T11:08:01.035Z,5.25
2018-05-12T11:11:10.484Z,6.60
2018-05-12T11:14:20.789Z,7.85
2018-05-12T11:17:30.423Z,7.68
2018-05-12T11:20:39.937Z,7.45
2018-05-12T11:23:49.304Z,4.97
2018-05-12T11:26:58.871Z,6.07
2018-05-12T11:30:08.370Z,9.18
2018-05-12T11:33:17.797Z,8.50
2018-05-12T11:36:28.581Z,10.18
2018-05-12T11:39:38.101Z,7.20
2018-05-12T11:42:47.547Z,6.37
2018-05-12T11:45:57.780Z,6.25
2018-05-12T11:49:07.251Z,8.85
2018-05-12T11:52:16.851Z,6.07
2018-05-12T11:55:26.305Z,5.32
2018-05-12T11:58:36.427Z,7.43
2018-05-12T12:01:45.883Z,8.90
2018-05-12T12:04:55.320Z,7.03
2018-05-12T12:08:04.835Z,6.82
2018-05-12T12:11:15.159Z,5.85
2018-05-12T12:14:25.171Z,8.07
2018-05-12T12:17:34.557Z,4.70
2018-05-12T12:20:43.988Z,8.95
2018-05-12T12:23:53.451Z,6.30
2018-05-12T12:27:03.371Z,6.43
2018-05-12T12:30:12.942Z,5.22
2018-05-12T12:33:22.439Z,6.80
2018-05-12T12:36:32.112Z,6.30
2018-05-12T12:39:41.447Z,11.15
2018-05-12T12:42:51.766Z,5.15
2018-05-12T12:46:01.133Z,5.12
2018-05-12T12:49:10.638Z,4.45
2018-05-12T12:52:20.242Z,7.22
2018-05-12T12:55:29.952Z,4.53
2018-05-12T12:58:39.254Z,6.82
2018-05-12T13:01:50.745Z,4.62
2018-05-12T13:05:00.932Z,7.72
2018-05-12T13:08:10.312Z,5.32
2018-05-12T13:11:19.957Z,5.07
2018-05-12T13:14:29.277Z,4.65
2018-05-12T13:17:38.957Z,5.50
2018-05-12T13:20:48.541Z,4.57
2018-05-12T13:23:57.973Z,5.15
2018-05-12T13:27:07.444Z,5.53
2018-05-12T13:30:16.901Z,5.28
2018-05-12T13:33:26.519Z,14.27
2018-05-12T13:36:36.393Z,4.60
2018-05-12T13:39:45.933Z,6.15
2018-05-12T13:42:55.463Z,4.05
2018-05-12T13:46:04.930Z,5.03
2018-05-12T13:49:14.864Z,3.75
2018-05-12T13:52:24.444Z,4.45
2018-05-12T13:55:34.712Z,8.65
2018-05-12T13:58:44.282Z,9.15
2018-05-12T14:01:55.472Z,5.10
2018-05-12T14:05:09.320Z,4.65
2018-05-12T14:08:18.665Z,3.58
2018-05-12T14:11:31.928Z,6.75
2018-05-12T14:14:41.589Z,9.65
2018-05-12T14:17:51.368Z,4.43
2018-05-12T14:21:01.404Z,5.45
2018-05-12T14:24:11.780Z,7.37
2018-05-12T14:27:21.608Z,3.60
2018-05-12T14:30:32.442Z,4.87
2018-05-12T14:33:41.782Z,5.57
2018-05-12T14:36:51.250Z,5.82
2018-05-12T14:40:01.664Z,4.25
2018-05-12T14:43:11.112Z,3.90
2018-05-12T14:46:20.589Z,3.67
2018-05-12T14:49:30.037Z,3.58
2018-05-12T14:52:40.308Z,3.55
2018-05-12T14:55:54.635Z,5.97
2018-05-12T14:59:09.005Z,4.18
2018-05-12T15:02:18.426Z,7.22
2018-05-12T15:05:27.740Z,4.07
2018-05-12T15:08:37.324Z,6.20
2018-05-12T15:11:47.340Z,3.58
2018-05-12T15:14:57.927Z,4.12
2018-05-12T15:18:07.300Z,3.92
2018-05-12T15:21:16.945Z,5.97
2018-05-12T15:24:27.701Z,4.03
2018-05-12T15:27:36.976Z,3.72
2018-05-12T15:30:46.885Z,4.60
2018-05-12T15:33:57.457Z,4.85
2018-05-12T15:37:07.837Z,3.75
2018-05-12T15:40:17.176Z,4.47
2018-05-12T15:43:27.320Z,3.90
2018-05-12T15:46:37.543Z,4.90
2018-05-12T15:49:46.913Z,3.80
2018-05-12T15:52:56.423Z,3.28
2018-05-12T15:56:05.950Z,4.00
2018-05-12T15:59:15.867Z,10.40
2018-05-12T16:02:25.562Z,3.58
2018-05-12T16:05:35.017Z,3.92
2018-05-12T16:08:45.016Z,3.78
2018-05-12T16:11:54.580Z,5.80
2018-05-12T16:15:04.290Z,3.75
2018-05-12T16:18:13.838Z,3.60
2018-05-12T16:21:24.148Z,5.30
2018-05-12T16:24:33.524Z,8.23
2018-05-12T16:27:43.644Z,9.07
2018-05-12T16:30:53.143Z,4.20
2018-05-12T16:34:03.414Z,5.00
2018-05-12T16:37:12.852Z,5.35
2018-05-12T16:40:23.173Z,5.70
2018-05-12T16:43:32.740Z,6.80
2018-05-12T16:46:42.193Z,7.90
2018-05-12T16:49:51.671Z,7.47
2018-05-12T16:53:03.120Z,6.40
2018-05-12T16:56:12.661Z,8.68
2018-05-12T16:59:22.159Z,7.40
2018-05-12T17:02:31.594Z,6.97
2018-05-12T17:05:41.042Z,7.87
2018-05-12T17:08:51.217Z,6.12
2018-05-12T17:12:00.533Z,7.18
2018-05-12T17:15:10.115Z,7.12
2018-05-12T17:18:19.377Z,8.57
2018-05-12T17:21:29.534Z,7.53
2018-05-12T17:24:38.787Z,8.13
2018-05-12T17:27:48.253Z,7.82
2018-05-12T17:30:57.738Z,8.48
2018-05-12T17:34:07.252Z,9.68
2018-05-12T17:37:16.701Z,7.30
2018-05-12T17:40:26.200Z,7.97
2018-05-12T17:43:36.267Z,8.20
2018-05-12T17:46:50.165Z,7.37
2018-05-12T17:50:00.142Z,9.63
2018-05-12T17:53:09.571Z,13.32
2018-05-12T17:56:19.469Z,10.30
2018-05-12T17:59:29.180Z,9.48
2018-05-12T18:02:38.706Z,10.38
2018-05-12T18:05:48.940Z,13.60
2018-05-12T18:08:58.808Z,40.12
2018-05-12T18:12:08.793Z,16.70
2018-05-12T18:15:18.309Z,10.02
2018-05-12T18:18:28.115Z,11.32
2018-05-12T18:21:37.762Z,14.13
2018-05-12T18:24:47.505Z,14.35
2018-05-12T18:27:56.940Z,24.02
2018-05-12T18:31:08.309Z,178.12
2018-05-12T18:34:18.389Z,13.45
2018-05-12T18:37:28.253Z,12.35
2018-05-12T18:40:37.583Z,12.30
2018-05-12T18:43:47.827Z,12.82
2018-05-12T18:46:57.712Z,17.40
2018-05-12T18:50:08.920Z,15.07
2018-05-12T18:53:19.156Z,14.68
2018-05-12T18:56:29.069Z,20.33
2018-05-12T18:59:38.572Z,21.55
2018-05-12T19:02:48.693Z,18.85
2018-05-12T19:05:58.825Z,17.30
2018-05-12T19:09:10.142Z,19.92
2018-05-12T19:12:20.412Z,23.52
2018-05-12T19:15:31.456Z,20.45
2018-05-12T19:18:40.742Z,19.42
2018-05-12T19:21:50.613Z,18.25
2018-05-12T19:25:01.014Z,22.85
2018-05-12T19:28:11.422Z,19.90
2018-05-12T19:31:21.735Z,19.70
2018-05-12T19:34:31.754Z,21.30
2018-05-12T19:37:42.129Z,20.92
2018-05-12T19:40:51.948Z,21.37
2018-05-12T19:44:01.429Z,21.30
2018-05-12T19:47:12.415Z,20.77
2018-05-12T19:50:26.940Z,22.98
2018-05-12T19:53:37.009Z,21.73
2018-05-12T19:56:46.297Z,26.10
2018-05-12T19:59:56.360Z,26.05
2018-05-12T20:03:05.836Z,24.15
2018-05-12T20:06:16.079Z,25.80
2018-05-12T20:09:26.433Z,26.15
2018-05-12T20:12:36.531Z,26.90
2018-05-12T20:15:46.547Z,25.23
2018-05-12T20:18:57.212Z,30.23
2018-05-12T20:22:06.878Z,28.23
2018-05-12T20:25:16.749Z,31.37
2018-05-12T20:28:27.003Z,29.05
2018-05-12T20:31:36.604Z,29.15
2018-05-12T20:34:46.116Z,32.33
2018-05-12T20:37:55.804Z,34.40
2018-05-12T20:41:05.653Z,32.13
2018-05-12T20:44:16.005Z,30.80
2018-05-12T20:47:25.737Z,91.78
2018-05-12T20:50:35.729Z,104.22
2018-05-12T20:53:45.901Z,48.20
2018-05-12T20:56:56.301Z,34.92
2018-05-12T21:00:06.791Z,35.42
2018-05-12T21:03:16.976Z,32.47
2018-05-12T21:06:26.510Z,33.10
2018-05-12T21:09:36.678Z,37.60
2018-05-12T21:12:46.591Z,38.70
2018-05-12T21:15:56.216Z,33.60
2018-05-12T21:19:05.728Z,33.95
2018-05-12T21:22:17.033Z,38.03
2018-05-12T21:25:26.866Z,43.80
2018-05-12T21:28:36.796Z,43.60
2018-05-12T21:31:46.253Z,35.80
2018-05-12T21:34:55.877Z,37.20
2018-05-12T21:38:05.838Z,38.70
2018-05-12T21:41:17.925Z,40.83
2018-05-12T21:44:27.774Z,35.83
2018-05-12T21:47:38.050Z,42.67
2018-05-12T21:50:48.248Z,39.75
2018-05-12T21:53:59.055Z,35.72
2018-05-12T21:57:09.438Z,46.28
2018-05-12T22:00:19.459Z,43.60
2018-05-12T22:03:29.008Z,46.90
2018-05-12T22:06:38.940Z,39.20
2018-05-12T22:09:49.285Z,42.05
2018-05-12T22:12:59.600Z,36.88
2018-05-12T22:16:09.803Z,35.15
2018-05-12T22:19:20.292Z,39.53
2018-05-12T22:22:29.961Z,34.20
2018-05-12T22:25:40.340Z,44.67
2018-05-12T22:28:50.172Z,35.70
2018-05-12T22:32:00.477Z,43.33
2018-05-12T22:35:11.794Z,41.58
2018-05-12T22:38:22.537Z,42.80
2018-05-12T22:41:32.438Z,43.13
2018-05-12T22:44:42.385Z,39.20
2018-05-12T22:47:52.584Z,43.70
2018-05-12T22:51:02.834Z,49.05
2018-05-12T22:54:12.798Z,71.80
2018-05-12T22:57:24.125Z,43.97
2018-05-12T23:00:33.888Z,47.03
2018-05-12T23:03:44.185Z,40.17
2018-05-12T23:06:53.609Z,41.45
2018-05-12T23:10:03.912Z,49.28
2018-05-12T23:13:14.369Z,50.63
2018-05-12T23:16:24.552Z,45.95
2018-05-12T23:19:34.355Z,50.03
2018-05-12T23:22:48.444Z,43.63
2018-05-12T23:25:57.884Z,50.08
2018-05-12T23:29:07.459Z,44.22
2018-05-12T23:32:17.295Z,56.28
2018-05-12T23:35:26.952Z,58.87
2018-05-12T23:38:37.132Z,52.95
2018-05-12T23:41:46.548Z,47.13
2018-05-12T23:44:56.006Z,60.25
2018-05-12T23:48:06.116Z,53.92
2018-05-12T23:51:15.945Z,53.15
2018-05-12T23:54:26.037Z,46.37
2018-05-12T23:57:37.165Z,55.40
